createdAt,value
2018-02-16T00:02:00.244Z,39.68
2018-02-16T00:04:26.058Z,39.45
2018-02-16T00:06:51.872Z,39.53
2018-02-16T00:09:17.714Z,39.58
2018-02-16T00:11:44.078Z,39.83
2018-02-16T00:14:09.900Z,39.74
2018-02-16T00:16:35.739Z,40.28
2018-02-16T00:19:01.554Z,40.23
2018-02-16T00:21:27.403Z,39.99
2018-02-16T00:23:53.207Z,40.01
2018-02-16T00:26:19.013Z,40.41
2018-02-16T00:28:44.817Z,40.18
2018-02-16T00:31:10.633Z,40.24
2018-02-16T00:33:36.486Z,40.00
2018-02-16T00:36:02.310Z,40.12
2018-02-16T00:38:28.158Z,40.16
2018-02-16T00:40:54.007Z,40.46
2018-02-16T00:43:19.894Z,40.45
2018-02-16T00:45:46.716Z,40.88
2018-02-16T00:48:13.365Z,41.04
2018-02-16T00:50:39.186Z,40.59
2018-02-16T00:53:04.999Z,40.64
2018-02-16T00:55:30.805Z,40.19
2018-02-16T00:57:56.621Z,41.35
2018-02-16T01:00:22.437Z,41.67
2018-02-16T01:02:48.245Z,41.59
2018-02-16T01:05:14.057Z,41.66
2018-02-16T01:07:40.709Z,41.39
2018-02-16T01:10:06.649Z,41.60
2018-02-16T01:12:32.498Z,41.39
2018-02-16T01:14:58.354Z,42.38
2018-02-16T01:17:24.201Z,41.18
2018-02-16T01:19:50.837Z,41.65
2018-02-16T01:22:17.598Z,41.83
2018-02-16T01:24:44.342Z,41.24
2018-02-16T01:27:10.157Z,41.21
2018-02-16T01:29:36.799Z,41.81
2018-02-16T01:32:02.657Z,41.63
2018-02-16T01:34:28.475Z,41.51
2018-02-16T01:36:54.286Z,42.11
2018-02-16T01:39:20.102Z,41.50
2018-02-16T01:41:45.910Z,41.54
2018-02-16T01:44:19.593Z,41.48
2018-02-16T01:46:45.434Z,42.17
2018-02-16T01:49:11.242Z,41.46
2018-02-16T01:51:37.866Z,41.71
2018-02-16T01:54:03.718Z,41.80
2018-02-16T01:56:29.537Z,41.89
2018-02-16T01:58:55.349Z,42.28
2018-02-16T02:01:21.170Z,42.17
2018-02-16T02:03:46.992Z,42.11
2018-02-16T02:06:12.802Z,41.81
2018-02-16T02:08:38.656Z,41.72
2018-02-16T02:11:04.467Z,42.07
2018-02-16T02:13:30.286Z,42.07
2018-02-16T02:15:56.098Z,42.38
2018-02-16T02:18:21.906Z,42.78
2018-02-16T02:20:47.718Z,41.51
2018-02-16T02:23:13.561Z,41.62
2018-02-16T02:25:39.383Z,41.72
2018-02-16T02:28:05.205Z,42.73
2018-02-16T02:30:31.017Z,41.92
2018-02-16T02:32:56.829Z,42.08
2018-02-16T02:35:22.642Z,41.89
2018-02-16T02:37:49.454Z,42.14
2018-02-16T02:40:16.254Z,42.09
2018-02-16T02:42:42.062Z,41.99
2018-02-16T02:45:07.915Z,42.02
2018-02-16T02:47:34.426Z,41.96
2018-02-16T02:50:01.240Z,41.81
2018-02-16T02:52:27.048Z,42.24
2018-02-16T02:54:53.845Z,41.65
2018-02-16T02:57:20.563Z,42.20
2018-02-16T02:59:47.310Z,42.08
2018-02-16T03:02:14.077Z,41.76
2018-02-16T03:04:39.883Z,42.06
2018-02-16T03:07:06.567Z,41.80
2018-02-16T03:09:33.442Z,41.79
2018-02-16T03:12:00.248Z,41.57
2018-02-16T03:14:26.060Z,42.02
2018-02-16T03:16:51.874Z,41.83
2018-02-16T03:19:17.685Z,41.82
2018-02-16T03:21:43.498Z,42.38
2018-02-16T03:24:09.465Z,41.77
2018-02-16T03:26:35.278Z,41.82
2018-02-16T03:29:01.092Z,42.25
2018-02-16T03:31:26.899Z,41.87
2018-02-16T03:33:52.701Z,41.90
2018-02-16T03:36:19.327Z,42.22
2018-02-16T03:38:45.150Z,42.16
2018-02-16T03:41:10.993Z,41.98
2018-02-16T03:43:36.846Z,42.33
2018-02-16T03:46:03.750Z,42.28
2018-02-16T03:48:29.608Z,42.22
2018-02-16T03:50:55.452Z,42.20
2018-02-16T03:53:21.260Z,42.35
2018-02-16T03:55:47.097Z,41.93
2018-02-16T03:58:13.934Z,41.99
2018-02-16T04:00:40.679Z,42.88
2018-02-16T04:03:06.491Z,42.83
2018-02-16T04:05:33.249Z,42.74
2018-02-16T04:07:59.107Z,42.43
2018-02-16T04:10:25.739Z,42.29
2018-02-16T04:12:51.578Z,42.36
2018-02-16T04:15:17.398Z,42.03
2018-02-16T04:17:43.274Z,42.08
2018-02-16T04:20:10.049Z,42.41
2018-02-16T04:22:36.838Z,43.31
2018-02-16T04:25:03.605Z,42.34
2018-02-16T04:27:30.416Z,42.29
2018-02-16T04:29:56.222Z,42.37
2018-02-16T04:32:22.033Z,42.22
2018-02-16T04:34:48.828Z,42.62
2018-02-16T04:37:15.630Z,42.22
2018-02-16T04:39:41.479Z,42.82
2018-02-16T04:42:07.290Z,42.79
2018-02-16T04:44:33.098Z,42.32
2018-02-16T04:46:58.988Z,42.27
2018-02-16T04:49:24.838Z,42.36
2018-02-16T04:51:50.669Z,42.34
2018-02-16T04:54:16.481Z,42.33
2018-02-16T04:56:42.286Z,42.29
2018-02-16T04:59:08.091Z,41.96
2018-02-16T05:01:33.899Z,42.22
2018-02-16T05:03:59.746Z,42.04
2018-02-16T05:06:25.569Z,42.27
2018-02-16T05:08:51.384Z,42.61
2018-02-16T05:11:17.196Z,42.19
2018-02-16T05:13:43.002Z,42.18
2018-02-16T05:16:08.811Z,41.84
2018-02-16T05:18:34.616Z,42.28
2018-02-16T05:21:00.438Z,42.12
2018-02-16T05:23:26.248Z,42.27
2018-02-16T05:25:52.894Z,42.10
2018-02-16T05:28:18.702Z,42.38
2018-02-16T05:30:44.506Z,42.06
2018-02-16T05:33:10.317Z,41.87
2018-02-16T05:35:36.121Z,41.89
2018-02-16T05:38:01.943Z,41.90
2018-02-16T05:40:27.766Z,41.85
2018-02-16T05:42:53.577Z,41.82
2018-02-16T05:45:19.513Z,41.78
2018-02-16T05:47:45.358Z,41.59
2018-02-16T05:50:11.355Z,41.35
2018-02-16T05:52:37.161Z,41.37
2018-02-16T05:55:02.988Z,41.51
2018-02-16T05:57:29.666Z,41.41
2018-02-16T05:59:55.517Z,41.80
2018-02-16T06:02:21.322Z,41.65
2018-02-16T06:04:47.134Z,41.56
2018-02-16T06:07:13.918Z,41.72
2018-02-16T06:09:39.762Z,41.53
2018-02-16T06:12:05.573Z,41.61
2018-02-16T06:14:31.417Z,41.65
2018-02-16T06:16:58.197Z,41.61
2018-02-16T06:19:24.001Z,41.91
2018-02-16T06:21:50.836Z,41.77
2018-02-16T06:24:16.629Z,41.90
2018-02-16T06:26:42.449Z,42.40
2018-02-16T06:29:09.116Z,41.69
2018-02-16T06:31:34.937Z,42.27
2018-02-16T06:34:00.782Z,41.91
2018-02-16T06:36:26.595Z,42.15
2018-02-16T06:38:52.435Z,42.10
2018-02-16T06:41:19.209Z,41.92
2018-02-16T06:43:46.046Z,41.88
2018-02-16T06:46:12.889Z,41.67
2018-02-16T06:48:39.630Z,41.49
2018-02-16T06:51:05.484Z,41.53
2018-02-16T06:53:32.357Z,41.78
2018-02-16T06:55:59.142Z,42.15
2018-02-16T06:58:25.761Z,41.73
2018-02-16T07:00:52.522Z,41.39
2018-02-16T07:03:19.280Z,41.37
2018-02-16T07:05:46.067Z,41.46
2018-02-16T07:08:11.902Z,41.29
2018-02-16T07:10:37.835Z,41.22
2018-02-16T07:13:04.239Z,41.32
2018-02-16T07:15:30.114Z,41.54
2018-02-16T07:17:56.919Z,41.62
2018-02-16T07:20:22.927Z,41.59
2018-02-16T07:22:49.582Z,41.30
2018-02-16T07:25:16.407Z,41.41
2018-02-16T07:27:43.235Z,41.27
2018-02-16T07:30:09.109Z,41.55
2018-02-16T07:32:34.950Z,41.75
2018-02-16T07:35:00.774Z,41.89
2018-02-16T07:39:59.248Z,41.83
2018-02-16T07:42:25.178Z,42.06
2018-02-16T07:44:51.904Z,41.51
2018-02-16T07:47:18.562Z,41.81
2018-02-16T07:49:47.813Z,41.84
2018-02-16T07:52:13.686Z,41.94
2018-02-16T07:54:39.734Z,41.75
2018-02-16T07:57:05.553Z,41.81
2018-02-16T07:59:31.373Z,41.57
2018-02-16T08:01:57.185Z,41.58
2018-02-16T08:04:23.030Z,41.58
2018-02-16T08:06:49.711Z,41.42
2018-02-16T08:09:15.566Z,41.49
2018-02-16T08:11:41.374Z,41.70
2018-02-16T08:14:07.182Z,41.83
2018-02-16T08:16:34.881Z,41.52
2018-02-16T08:19:02.232Z,41.88
2018-02-16T08:21:28.780Z,41.41
2018-02-16T08:23:55.484Z,41.17
2018-02-16T08:26:22.022Z,41.39
2018-02-16T08:28:49.413Z,41.25
2018-02-16T08:31:15.402Z,41.24
2018-02-16T08:33:41.307Z,41.38
2018-02-16T08:36:07.150Z,40.73
2018-02-16T08:38:32.956Z,41.05
2018-02-16T08:40:58.757Z,41.02
2018-02-16T08:43:24.589Z,41.04
2018-02-16T08:45:50.398Z,40.95
2018-02-16T08:48:16.205Z,40.93
2018-02-16T08:50:42.150Z,41.06
2018-02-16T08:53:08.801Z,41.04
2018-02-16T08:55:34.809Z,41.27
2018-02-16T08:58:00.605Z,40.74
2018-02-16T09:00:26.410Z,41.09
2018-02-16T09:02:52.395Z,41.20
2018-02-16T09:05:18.206Z,40.32
2018-02-16T09:07:44.005Z,40.36
2018-02-16T09:10:09.801Z,40.82
2018-02-16T09:12:35.686Z,40.48
2018-02-16T09:15:01.486Z,40.35
2018-02-16T09:17:27.326Z,40.68
2018-02-16T09:19:53.134Z,39.71
2018-02-16T09:22:19.050Z,40.56
2018-02-16T09:24:44.991Z,39.96
2018-02-16T09:27:10.794Z,40.11
2018-02-16T09:29:36.657Z,39.19
2018-02-16T09:32:02.460Z,39.64
2018-02-16T09:34:28.338Z,39.63
2018-02-16T09:36:54.726Z,39.33
2018-02-16T09:39:23.006Z,39.22
2018-02-16T09:41:49.639Z,39.37
2018-02-16T09:44:15.490Z,38.77
2018-02-16T09:46:41.293Z,40.80
2018-02-16T09:49:07.176Z,39.49
2018-02-16T09:51:32.981Z,39.53
2018-02-16T09:53:58.945Z,40.43
2018-02-16T09:56:24.786Z,39.68
2018-02-16T09:58:50.611Z,39.27
2018-02-16T10:01:16.417Z,38.47
2018-02-16T10:03:42.281Z,38.71
2018-02-16T10:06:08.126Z,39.05
2018-02-16T10:08:33.974Z,38.67
2018-02-16T10:11:00.622Z,39.33
2018-02-16T10:13:26.653Z,39.70
2018-02-16T10:15:53.374Z,39.53
2018-02-16T10:18:19.185Z,38.79
2018-02-16T10:20:46.034Z,38.20
2018-02-16T10:23:11.841Z,39.66
2018-02-16T10:25:37.865Z,39.54
2018-02-16T10:28:03.666Z,39.21
2018-02-16T10:30:29.513Z,38.88
2018-02-16T10:32:55.357Z,38.94
2018-02-16T10:35:21.275Z,38.21
2018-02-16T10:37:47.100Z,38.90
2018-02-16T10:40:12.906Z,39.04
2018-02-16T10:42:38.823Z,38.94
2018-02-16T10:45:04.639Z,38.67
2018-02-16T10:47:30.450Z,38.06
2018-02-16T10:49:56.302Z,38.41
2018-02-16T10:52:22.118Z,38.63
2018-02-16T10:54:49.090Z,38.72
2018-02-16T10:57:14.900Z,38.43
2018-02-16T10:59:40.748Z,38.56
2018-02-16T11:02:12.637Z,38.02
2018-02-16T11:04:44.756Z,38.50
2018-02-16T11:07:16.738Z,38.81
2018-02-16T11:09:42.626Z,38.66
2018-02-16T11:12:08.602Z,39.17
2018-02-16T11:14:35.049Z,39.19
2018-02-16T11:17:00.898Z,38.74
2018-02-16T11:19:26.707Z,38.58
2018-02-16T11:21:53.526Z,39.12
2018-02-16T11:24:20.270Z,39.55
2018-02-16T11:26:46.078Z,39.78
2018-02-16T11:29:11.887Z,39.85
2018-02-16T11:31:37.687Z,39.51
2018-02-16T11:34:03.537Z,39.01
2018-02-16T11:36:30.357Z,39.26
2018-02-16T11:38:57.178Z,38.99
2018-02-16T11:41:23.998Z,38.95
2018-02-16T11:43:49.841Z,38.98
2018-02-16T11:46:15.705Z,38.80
2018-02-16T11:48:42.324Z,39.51
2018-02-16T11:51:08.278Z,39.67
2018-02-16T11:53:34.082Z,39.84
2018-02-16T11:55:59.907Z,40.01
2018-02-16T11:58:25.715Z,38.88
2018-02-16T12:00:51.517Z,39.24
2018-02-16T12:03:18.338Z,39.90
2018-02-16T12:05:44.185Z,39.66
2018-02-16T12:08:10.003Z,39.86
2018-02-16T12:10:35.817Z,39.69
2018-02-16T12:13:01.622Z,39.43
2018-02-16T12:15:27.438Z,39.90
2018-02-16T12:17:53.242Z,39.78
2018-02-16T12:20:19.057Z,40.21
2018-02-16T12:22:44.869Z,39.78
2018-02-16T12:25:10.681Z,39.45
2018-02-16T12:27:37.409Z,39.47
2018-02-16T12:30:03.223Z,39.51
2018-02-16T12:32:29.885Z,39.78
2018-02-16T12:34:55.692Z,40.08
2018-02-16T12:37:22.464Z,39.97
2018-02-16T12:39:48.678Z,40.00
2018-02-16T12:42:21.382Z,40.15
2018-02-16T12:44:47.200Z,40.09
2018-02-16T12:47:13.014Z,40.21
2018-02-16T12:49:38.822Z,40.36
2018-02-16T12:52:04.629Z,40.83
2018-02-16T12:54:30.433Z,40.51
2018-02-16T12:56:56.246Z,40.30
2018-02-16T12:59:22.238Z,40.86
2018-02-16T13:01:48.077Z,40.84
2018-02-16T13:04:13.911Z,40.66
2018-02-16T13:06:39.728Z,41.09
2018-02-16T13:09:05.561Z,40.68
2018-02-16T13:11:31.370Z,40.90
2018-02-16T13:13:57.187Z,40.57
2018-02-16T13:16:22.996Z,39.93
2018-02-16T13:18:48.810Z,40.07
2018-02-16T13:21:14.622Z,40.11
2018-02-16T13:23:40.436Z,40.56
2018-02-16T13:26:06.266Z,40.57
2018-02-16T13:28:32.106Z,40.63
2018-02-16T13:30:58.822Z,40.20
2018-02-16T13:33:25.650Z,40.43
2018-02-16T13:35:52.326Z,40.28
2018-02-16T13:38:19.078Z,40.17
2018-02-16T13:40:45.872Z,39.86
2018-02-16T13:43:12.589Z,40.38
2018-02-16T13:45:38.398Z,39.79
2018-02-16T13:48:05.047Z,40.12
2018-02-16T13:50:31.576Z,40.76
2018-02-16T13:52:58.241Z,40.68
2018-02-16T13:55:24.890Z,40.29
2018-02-16T13:57:50.691Z,40.29
2018-02-16T14:00:17.555Z,40.79
2018-02-16T14:02:43.358Z,40.84
2018-02-16T14:05:10.114Z,40.76
2018-02-16T14:07:35.930Z,41.12
2018-02-16T14:10:02.810Z,40.82
2018-02-16T14:12:28.649Z,40.91
2018-02-16T14:14:55.313Z,40.81
2018-02-16T14:17:22.174Z,41.07
2018-02-16T14:19:48.849Z,40.71
2018-02-16T14:22:14.697Z,40.32
2018-02-16T14:24:41.306Z,40.31
2018-02-16T14:27:07.146Z,40.52
2018-02-16T14:29:32.986Z,40.70
2018-02-16T14:31:58.796Z,40.65
2018-02-16T14:34:25.584Z,40.37
2018-02-16T14:36:51.386Z,40.22
2018-02-16T14:39:18.018Z,40.71
2018-02-16T14:41:43.833Z,40.52
2018-02-16T14:44:10.580Z,40.50
2018-02-16T14:46:36.406Z,40.63
2018-02-16T14:49:03.176Z,40.52
2018-02-16T14:51:29.958Z,40.25
2018-02-16T14:53:56.718Z,40.96
2018-02-16T14:56:23.354Z,40.63
2018-02-16T14:58:49.206Z,40.40
2018-02-16T15:01:15.925Z,40.33
2018-02-16T15:03:41.749Z,40.98
2018-02-16T15:06:08.510Z,40.62
2018-02-16T15:08:34.352Z,40.40
2018-02-16T15:11:01.044Z,40.41
2018-02-16T15:13:27.715Z,40.26
2018-02-16T15:15:54.498Z,40.00
2018-02-16T15:18:21.119Z,40.15
2018-02-16T15:20:47.914Z,40.34
2018-02-16T15:23:14.702Z,40.20
2018-02-16T15:25:41.313Z,39.95
2018-02-16T15:28:07.123Z,40.34
2018-02-16T15:30:32.945Z,40.04
2018-02-16T15:32:59.641Z,39.82
2018-02-16T15:35:25.446Z,39.96
2018-02-16T15:37:52.287Z,39.98
2018-02-16T15:40:18.086Z,40.01
2018-02-16T15:42:44.886Z,39.65
2018-02-16T15:45:10.726Z,39.88
2018-02-16T15:47:37.546Z,39.78
2018-02-16T15:50:04.313Z,39.86
2018-02-16T15:52:30.117Z,39.97
2018-02-16T15:54:56.889Z,39.80
2018-02-16T15:57:23.625Z,40.01
2018-02-16T15:59:50.423Z,39.75
2018-02-16T16:02:16.233Z,39.95
2018-02-16T16:04:42.986Z,39.93
2018-02-16T16:10:19.495Z,40.65
2018-02-16T16:12:45.280Z,40.30
2018-02-16T16:15:11.866Z,40.33
2018-02-16T16:17:37.642Z,40.36
2018-02-16T16:20:04.369Z,40.00
2018-02-16T16:22:30.169Z,39.92
2018-02-16T16:24:56.873Z,40.21
2018-02-16T16:27:22.660Z,40.39
2018-02-16T16:29:48.446Z,39.98
2018-02-16T16:32:14.221Z,39.97
2018-02-16T16:34:40.000Z,40.03
2018-02-16T16:37:05.770Z,40.04
2018-02-16T16:39:32.562Z,39.78
2018-02-16T16:41:58.339Z,39.89
2018-02-16T16:44:25.073Z,39.94
2018-02-16T16:46:50.859Z,40.01
2018-02-16T16:49:16.630Z,40.15
2018-02-16T16:51:42.414Z,40.00
2018-02-16T16:54:08.246Z,39.97
2018-02-16T16:56:34.940Z,40.24
2018-02-16T16:59:01.694Z,39.81
2018-02-16T17:01:27.473Z,39.99
2018-02-16T17:03:53.266Z,39.94
2018-02-16T17:06:19.048Z,39.96
2018-02-16T17:08:44.827Z,40.20
2018-02-16T17:11:10.642Z,40.26
2018-02-16T17:13:36.418Z,40.03
2018-02-16T17:16:02.197Z,40.27
2018-02-16T17:18:27.975Z,39.93
2018-02-16T17:20:53.749Z,39.99
2018-02-16T17:23:19.518Z,40.17
2018-02-16T17:25:45.329Z,40.09
2018-02-16T17:28:11.938Z,40.15
2018-02-16T17:30:38.785Z,40.04
2018-02-16T17:33:05.507Z,40.92
2018-02-16T17:35:32.190Z,40.06
2018-02-16T17:37:58.003Z,40.43
2018-02-16T17:40:24.601Z,40.22
2018-02-16T17:42:50.431Z,40.15
2018-02-16T17:45:16.997Z,40.20
2018-02-16T17:47:42.848Z,40.25
2018-02-16T17:50:08.620Z,40.23
2018-02-16T17:52:34.443Z,40.41
2018-02-16T17:55:01.213Z,40.09
2018-02-16T17:57:27.031Z,40.42
2018-02-16T17:59:52.815Z,40.52
2018-02-16T18:02:18.665Z,40.65
2018-02-16T18:04:44.442Z,40.30
2018-02-16T18:07:10.213Z,40.51
2018-02-16T18:09:36.017Z,40.69
2018-02-16T18:12:01.799Z,40.54
2018-02-16T18:14:27.613Z,40.95
2018-02-16T18:16:53.713Z,40.99
2018-02-16T18:19:19.546Z,40.62
2018-02-16T18:21:45.322Z,41.04
2018-02-16T18:24:11.140Z,40.96
2018-02-16T18:26:36.909Z,40.94
2018-02-16T18:29:02.725Z,40.87
2018-02-16T18:31:28.503Z,40.92
2018-02-16T18:33:54.283Z,40.45
2018-02-16T18:36:20.090Z,40.78
2018-02-16T18:38:45.870Z,40.93
2018-02-16T18:41:11.682Z,40.67
2018-02-16T18:43:37.458Z,40.81
2018-02-16T18:46:03.298Z,40.89
2018-02-16T18:48:30.055Z,40.48
2018-02-16T18:50:55.838Z,41.21
2018-02-16T18:53:21.605Z,41.14
2018-02-16T18:55:47.428Z,41.27
2018-02-16T18:58:13.206Z,41.09
2018-02-16T19:00:39.989Z,40.68
2018-02-16T19:03:06.745Z,40.83
2018-02-16T19:05:33.520Z,40.80
2018-02-16T19:07:59.334Z,40.62
2018-02-16T19:10:26.129Z,40.82
2018-02-16T19:12:51.946Z,40.49
2018-02-16T19:15:18.650Z,40.41
2018-02-16T19:17:44.468Z,40.40
2018-02-16T19:20:10.246Z,40.58
2018-02-16T19:22:36.030Z,40.37
2018-02-16T19:25:01.809Z,40.50
2018-02-16T19:27:27.589Z,40.41
2018-02-16T19:29:54.235Z,40.60
2018-02-16T19:32:20.018Z,40.55
2018-02-16T19:34:45.829Z,40.46
2018-02-16T19:37:11.601Z,40.56
2018-02-16T19:39:38.382Z,40.70
2018-02-16T19:42:04.161Z,40.74
2018-02-16T19:44:29.936Z,40.44
2018-02-16T19:46:55.710Z,40.28
2018-02-16T19:49:21.489Z,40.51
2018-02-16T19:51:48.215Z,40.89
2018-02-16T19:54:15.007Z,40.48
2018-02-16T19:56:40.841Z,40.61
2018-02-16T19:59:07.390Z,40.45
2018-02-16T20:01:33.191Z,40.60
2018-02-16T20:04:00.013Z,40.42
2018-02-16T20:06:25.870Z,40.76
2018-02-16T20:08:51.670Z,40.53
2018-02-16T20:11:18.418Z,40.38
2018-02-16T20:13:45.197Z,40.84
2018-02-16T20:16:10.994Z,40.42
2018-02-16T20:18:36.832Z,40.82
2018-02-16T20:21:02.613Z,40.66
2018-02-16T20:23:29.257Z,40.36
2018-02-16T20:25:55.050Z,40.61
2018-02-16T20:28:21.713Z,40.75
2018-02-16T20:30:47.549Z,40.36
2018-02-16T20:33:13.334Z,39.86
2018-02-16T20:35:39.150Z,40.15
2018-02-16T20:38:04.940Z,40.35
2018-02-16T20:40:30.877Z,40.78
2018-02-16T20:42:56.769Z,40.32
2018-02-16T20:45:22.733Z,40.21
2018-02-16T20:47:49.320Z,40.08
2018-02-16T20:50:15.158Z,40.17
2018-02-16T20:52:41.002Z,40.95
2018-02-16T20:55:07.683Z,40.76
2018-02-16T20:57:34.351Z,40.59
2018-02-16T21:00:00.157Z,40.19
2018-02-16T21:02:26.769Z,40.29
2018-02-16T21:04:53.550Z,40.39
2018-02-16T21:07:19.336Z,40.57
2018-02-16T21:09:45.149Z,40.57
2018-02-16T21:12:10.989Z,39.97
2018-02-16T21:14:36.773Z,40.41
2018-02-16T21:17:02.634Z,39.80
2018-02-16T21:19:28.432Z,40.17
2018-02-16T21:21:55.081Z,39.94
2018-02-16T21:24:20.865Z,39.96
2018-02-16T21:26:47.495Z,40.22
2018-02-16T21:29:13.300Z,40.55
2018-02-16T21:31:39.877Z,40.10
2018-02-16T21:34:05.660Z,40.27
2018-02-16T21:36:32.468Z,40.13
2018-02-16T21:38:58.286Z,40.12
2018-02-16T21:41:24.073Z,40.28
2018-02-16T21:43:50.797Z,39.89
2018-02-16T21:46:16.634Z,40.40
2018-02-16T21:48:42.537Z,40.17
2018-02-16T21:51:08.319Z,39.44
2018-02-16T21:53:34.103Z,39.43
2018-02-16T21:55:59.881Z,39.68
2018-02-16T21:58:25.657Z,39.81
2018-02-16T22:00:52.413Z,39.36
2018-02-16T22:03:18.208Z,39.83
2018-02-16T22:05:44.008Z,39.65
2018-02-16T22:08:10.734Z,40.04
2018-02-16T22:10:37.611Z,39.74
2018-02-16T22:13:04.323Z,39.74
2018-02-16T22:15:30.158Z,40.47
2018-02-16T22:17:55.977Z,40.53
2018-02-16T22:20:21.801Z,40.27
2018-02-16T22:22:47.597Z,41.32
2018-02-16T22:25:13.515Z,40.77
2018-02-16T22:27:39.520Z,39.77
2018-02-16T22:30:05.362Z,39.72
2018-02-16T22:32:31.250Z,39.21
2018-02-16T22:34:57.887Z,39.81
2018-02-16T22:37:24.676Z,39.36
2018-02-16T22:39:51.554Z,39.46
2018-02-16T22:42:17.342Z,40.11
2018-02-16T22:44:43.134Z,39.61
2018-02-16T22:47:10.111Z,39.28
2018-02-16T22:49:36.725Z,39.60
2018-02-16T22:52:02.521Z,39.54
2018-02-16T22:54:28.306Z,39.53
2018-02-16T22:56:54.085Z,39.44
2018-02-16T22:59:19.880Z,39.71
2018-02-16T23:01:45.672Z,39.78
2018-02-16T23:04:12.400Z,40.03
2018-02-16T23:06:38.223Z,39.92
2018-02-16T23:09:04.021Z,39.52
2018-02-16T23:11:29.819Z,39.60
2018-02-16T23:13:55.616Z,40.13
2018-02-16T23:16:22.430Z,39.88
2018-02-16T23:18:48.217Z,40.19
2018-02-16T23:21:14.872Z,39.58
2018-02-16T23:23:40.655Z,39.98
2018-02-16T23:26:06.440Z,39.67
2018-02-16T23:28:32.225Z,39.63
2018-02-16T23:30:59.003Z,39.32
2018-02-16T23:33:24.785Z,39.62
2018-02-16T23:35:50.561Z,39.93
2018-02-16T23:38:16.346Z,39.69
2018-02-16T23:40:42.125Z,39.60
2018-02-16T23:43:07.862Z,39.38
2018-02-16T23:45:33.682Z,39.62
2018-02-16T23:48:00.424Z,39.58
2018-02-16T23:50:26.206Z,39.47
2018-02-16T23:52:53.014Z,40.01
2018-02-16T23:55:18.798Z,40.02
2018-02-16T23:57:44.573Z,39.65
